Time;durP1;ratioP1;P1;durP2;ratioP2;P2;SDS_P1;SDS_P2;PMS_P1;PMS_P2;Temp;Humidity;BMP_temperature;BMP_pressure;BME280_temperature;BME280_humidity;BME280_pressure;Samples;Min_cycle;Max_cycle;Signal;HPM_P1;HPM_P2
2021/09/21 00:01:19;;;;;;;;;;;13.60;73.00;;;;;;5091860;28;20400;-69
2021/09/21 00:03:46;;;;;;;;;;;13.40;72.80;;;;;;5091561;28;19909;-68
2021/09/21 00:06:13;;;;;;;;;;;13.30;73.30;;;;;;5091854;28;19908;-67
2021/09/21 00:08:40;;;;;;;;;;;13.50;73.60;;;;;;5091661;28;20366;-68
2021/09/21 00:11:07;;;;;;;;;;;13.80;73.60;;;;;;5091841;28;19942;-68
2021/09/21 00:13:34;;;;;;;;;;;14.00;72.40;;;;;;5091621;28;19935;-69
2021/09/21 00:16:02;;;;;;;;;;;14.00;72.20;;;;;;5091537;28;19908;-68
2021/09/21 00:18:29;;;;;;;;;;;13.90;72.30;;;;;;5091633;28;19962;-68
2021/09/21 00:20:55;;;;;;;;;;;13.90;72.80;;;;;;5091676;28;19915;-69
2021/09/21 00:23:22;;;;;;;;;;;13.90;73.10;;;;;;5091350;28;20290;-67
2021/09/21 00:25:49;;;;;;;;;;;14.00;72.00;;;;;;5091183;28;19916;-67
2021/09/21 00:28:16;;;;;;;;;;;13.80;71.40;;;;;;5091590;28;19912;-67
2021/09/21 00:30:48;;;;;;;;;;;13.80;71.70;;;;;;5091701;28;19920;-67
2021/09/21 00:33:20;;;;;;;;;;;13.70;71.70;;;;;;5092332;28;20015;-68
2021/09/21 00:35:53;;;;;;;;;;;13.80;70.80;;;;;;5094889;28;19962;-67
2021/09/21 00:38:20;;;;;;;;;;;13.70;70.80;;;;;;5095014;28;19961;-68
2021/09/21 00:40:48;;;;;;;;;;;13.70;71.40;;;;;;5095259;28;19908;-66
2021/09/21 00:43:24;;;;;;;;;;;13.80;71.30;;;;;;5095079;28;19957;-68
2021/09/21 00:45:52;;;;;;;;;;;13.70;70.90;;;;;;5094823;28;19973;-68
2021/09/21 00:48:19;;;;;;;;;;;13.80;71.00;;;;;;5094799;28;19918;-69
2021/09/21 00:50:46;;;;;;;;;;;13.90;70.00;;;;;;5094342;28;19920;-69
2021/09/21 00:53:13;;;;;;;;;;;13.90;70.00;;;;;;5094672;28;20458;-67
2021/09/21 00:55:40;;;;;;;;;;;13.90;69.60;;;;;;5092848;28;19911;-68
2021/09/21 00:58:06;;;;;;;;;;;14.00;70.00;;;;;;5094538;28;20022;-69
2021/09/21 01:00:33;;;;;;;;;;;14.00;69.60;;;;;;5093508;28;19916;-66
2021/09/21 01:03:00;;;;;;;;;;;13.90;69.40;;;;;;5094669;28;19952;-67
2021/09/21 01:05:26;;;;;;;;;;;13.80;69.50;;;;;;5094380;28;19916;-68
2021/09/21 01:07:53;;;;;;;;;;;13.80;69.00;;;;;;5094557;28;19943;-70
2021/09/21 01:10:22;;;;;;;;;;;14.10;69.50;;;;;;5094447;28;19912;-67
2021/09/21 01:12:49;;;;;;;;;;;14.10;68.30;;;;;;5094462;28;19935;-67
2021/09/21 01:15:16;;;;;;;;;;;14.10;68.20;;;;;;5094372;28;19961;-70
2021/09/21 01:17:42;;;;;;;;;;;14.40;66.70;;;;;;5094281;28;19908;-69
2021/09/21 01:20:10;;;;;;;;;;;14.50;66.70;;;;;;5094000;28;19958;-68
2021/09/21 01:22:37;;;;;;;;;;;14.60;67.00;;;;;;5094489;28;19939;-69
2021/09/21 01:25:04;;;;;;;;;;;14.60;66.50;;;;;;5093684;28;19916;-68
2021/09/21 01:27:31;;;;;;;;;;;14.60;67.10;;;;;;5094139;28;19912;-68
2021/09/21 01:29:57;;;;;;;;;;;14.70;66.80;;;;;;5092596;28;20328;-69
2021/09/21 01:32:24;;;;;;;;;;;14.80;66.30;;;;;;5094224;28;19929;-69
2021/09/21 01:34:51;;;;;;;;;;;14.90;66.10;;;;;;5092645;28;20730;-68
2021/09/21 01:37:19;;;;;;;;;;;14.90;64.50;;;;;;5093573;28;19955;-69
2021/09/21 01:39:45;;;;;;;;;;;15.00;65.60;;;;;;5093485;28;20501;-68
2021/09/21 01:42:12;;;;;;;;;;;15.10;64.40;;;;;;5093788;28;20006;-68
2021/09/21 01:44:39;;;;;;;;;;;15.00;64.40;;;;;;5093113;28;19939;-68
2021/09/21 01:47:06;;;;;;;;;;;14.80;64.80;;;;;;5093780;28;19912;-70
2021/09/21 01:52:30;;;;;;;;;;;14.90;65.50;;;;;;5094378;28;19958;-69
2021/09/21 02:00:14;;;;;;;;;;;14.80;67.70;;;;;;5093736;28;19918;-67
2021/09/21 02:02:41;;;;;;;;;;;14.90;66.70;;;;;;5093476;28;19954;-67
2021/09/21 02:05:08;;;;;;;;;;;14.90;66.60;;;;;;5093162;28;19926;-68
2021/09/21 02:07:34;;;;;;;;;;;14.90;67.70;;;;;;5093413;28;19966;-68
2021/09/21 02:10:01;;;;;;;;;;;15.00;68.60;;;;;;5092052;28;19909;-69
2021/09/21 02:12:28;;;;;;;;;;;15.10;69.40;;;;;;5093358;28;20309;-68
2021/09/21 02:14:58;;;;;;;;;;;14.90;70.70;;;;;;5093018;28;20311;-67
2021/09/21 02:17:25;;;;;;;;;;;15.00;71.50;;;;;;5092927;28;19908;-68
2021/09/21 02:19:52;;;;;;;;;;;14.90;72.90;;;;;;5092611;28;19995;-67
2021/09/21 02:22:18;;;;;;;;;;;15.10;72.20;;;;;;5093125;28;20349;-66
2021/09/21 02:24:45;;;;;;;;;;;15.20;72.00;;;;;;5091276;28;20278;-68
2021/09/21 02:27:12;;;;;;;;;;;14.90;72.70;;;;;;5092887;28;19908;-68
2021/09/21 02:29:38;;;;;;;;;;;15.00;73.40;;;;;;5092673;28;19914;-69
2021/09/21 02:32:05;;;;;;;;;;;15.00;73.00;;;;;;5093198;28;19948;-68
2021/09/21 02:34:32;;;;;;;;;;;14.90;71.80;;;;;;5092610;28;19908;-67
2021/09/21 02:36:59;;;;;;;;;;;15.00;73.40;;;;;;5092772;28;20389;-66
2021/09/21 02:39:25;;;;;;;;;;;15.10;73.10;;;;;;5092872;28;20358;-69
2021/09/21 02:41:52;;;;;;;;;;;15.10;73.10;;;;;;5092536;28;19938;-67
2021/09/21 02:44:18;;;;;;;;;;;15.10;73.40;;;;;;5091488;28;19964;-66
2021/09/21 02:46:45;;;;;;;;;;;14.90;75.20;;;;;;5092766;28;19909;-67
2021/09/21 02:49:12;;;;;;;;;;;15.00;75.10;;;;;;5092524;28;19968;-69
2021/09/21 02:51:38;;;;;;;;;;;15.10;76.00;;;;;;5092495;28;20151;-67
2021/09/21 02:54:05;;;;;;;;;;;15.40;75.30;;;;;;5091933;28;20315;-67
2021/09/21 02:56:32;;;;;;;;;;;15.50;74.60;;;;;;5092091;28;20373;-67
2021/09/21 02:58:58;;;;;;;;;;;15.40;74.60;;;;;;5092247;28;20362;-69
2021/09/21 03:01:25;;;;;;;;;;;15.50;75.30;;;;;;5092493;28;19930;-69
2021/09/21 03:03:56;;;;;;;;;;;15.30;75.60;;;;;;5092064;28;20367;-70
2021/09/21 03:06:25;;;;;;;;;;;15.30;75.70;;;;;;5092532;28;19919;-69
2021/09/21 03:08:59;;;;;;;;;;;15.40;75.40;;;;;;5092217;28;19908;-68
2021/09/21 03:11:28;;;;;;;;;;;15.20;76.10;;;;;;5092458;28;20044;-69
2021/09/21 03:19:06;;;;;;;;;;;14.90;75.00;;;;;;5092678;28;19915;-69
2021/09/21 03:21:32;;;;;;;;;;;15.00;75.20;;;;;;5091969;28;19920;-69
2021/09/21 03:23:59;;;;;;;;;;;15.20;73.60;;;;;;5091681;28;19908;-68
2021/09/21 03:26:26;;;;;;;;;;;15.20;71.80;;;;;;5092171;28;19939;-69
2021/09/21 03:28:52;;;;;;;;;;;15.20;72.20;;;;;;5092223;28;19909;-68
2021/09/21 03:31:19;;;;;;;;;;;15.10;73.60;;;;;;5092481;28;20355;-68
2021/09/21 03:33:45;;;;;;;;;;;15.00;74.80;;;;;;5092136;28;19912;-69
2021/09/21 03:36:12;;;;;;;;;;;15.20;73.00;;;;;;5091723;28;19955;-69
2021/09/21 03:38:39;;;;;;;;;;;15.10;72.00;;;;;;5092145;28;19912;-68
2021/09/21 03:41:05;;;;;;;;;;;15.10;72.30;;;;;;5092206;28;19908;-69
2021/09/21 03:43:32;;;;;;;;;;;15.20;73.90;;;;;;5091969;28;19915;-70
2021/09/21 03:45:59;;;;;;;;;;;15.20;74.30;;;;;;5091766;28;19996;-66
2021/09/21 03:48:25;;;;;;;;;;;15.20;74.10;;;;;;5091712;28;19908;-69
2021/09/21 03:50:52;;;;;;;;;;;15.10;74.00;;;;;;5091906;28;19920;-67
2021/09/21 03:53:19;;;;;;;;;;;15.30;76.00;;;;;;5091985;28;19943;-68
2021/09/21 03:55:45;;;;;;;;;;;15.40;71.30;;;;;;5091264;28;20363;-69
2021/09/21 03:58:12;;;;;;;;;;;15.30;70.90;;;;;;5091356;28;19908;-69
2021/09/21 04:00:39;;;;;;;;;;;15.30;73.10;;;;;;5091912;28;20419;-69
2021/09/21 04:03:06;;;;;;;;;;;15.10;74.40;;;;;;5090524;28;19913;-69
2021/09/21 04:05:32;;;;;;;;;;;15.20;74.80;;;;;;5091430;28;19970;-68
2021/09/21 04:07:59;;;;;;;;;;;15.30;73.60;;;;;;5091896;28;19924;-69
2021/09/21 04:10:25;;;;;;;;;;;15.30;73.30;;;;;;5095874;28;19947;-68
2021/09/21 04:12:52;;;;;;;;;;;15.40;74.70;;;;;;5095727;28;20370;-69
2021/09/21 04:15:19;;;;;;;;;;;15.20;82.30;;;;;;5095433;28;19918;-68
2021/09/21 04:17:46;;;;;;;;;;;14.90;84.30;;;;;;5095457;28;19916;-67
2021/09/21 04:20:12;;;;;;;;;;;14.70;81.60;;;;;;5093660;28;19974;-67
2021/09/21 04:22:42;;;;;;;;;;;14.70;82.30;;;;;;5095408;28;19916;-67
2021/09/21 04:25:09;;;;;;;;;;;14.70;82.60;;;;;;5094831;28;19923;-68
2021/09/21 04:27:36;;;;;;;;;;;14.70;78.50;;;;;;5095097;28;19916;-67
2021/09/21 04:30:03;;;;;;;;;;;14.70;80.10;;;;;;5094916;28;20363;-67
2021/09/21 04:32:30;;;;;;;;;;;14.70;80.40;;;;;;5095105;28;19999;-67
2021/09/21 04:34:57;;;;;;;;;;;14.80;79.10;;;;;;5095388;28;19998;-67
2021/09/21 04:37:24;;;;;;;;;;;14.80;75.80;;;;;;5095128;28;19908;-66
2021/09/21 04:39:51;;;;;;;;;;;14.80;75.70;;;;;;5095078;28;19998;-68
2021/09/21 04:42:21;;;;;;;;;;;14.90;77.20;;;;;;5094835;28;19914;-69
2021/09/21 04:44:48;;;;;;;;;;;15.00;76.60;;;;;;5094878;28;20036;-69
2021/09/21 04:47:15;;;;;;;;;;;14.90;77.30;;;;;;5094935;28;19991;-69
2021/09/21 04:49:42;;;;;;;;;;;14.80;78.60;;;;;;5094392;28;19919;-68
2021/09/21 04:52:08;;;;;;;;;;;14.80;79.40;;;;;;5094836;28;19951;-68
2021/09/21 04:54:35;;;;;;;;;;;14.70;81.30;;;;;;5094490;28;19908;-68
2021/09/21 04:57:02;;;;;;;;;;;14.60;82.80;;;;;;5095125;28;20443;-69
2021/09/21 04:59:28;;;;;;;;;;;14.40;83.40;;;;;;5093471;28;19908;-70
2021/09/21 05:01:55;;;;;;;;;;;14.50;84.00;;;;;;5094570;28;20355;-69
2021/09/21 05:04:21;;;;;;;;;;;14.60;84.00;;;;;;5094417;28;20324;-69
2021/09/21 05:06:48;;;;;;;;;;;14.70;84.10;;;;;;5094697;28;19912;-69
2021/09/21 05:09:15;;;;;;;;;;;14.80;79.90;;;;;;5094466;28;19965;-69
2021/09/21 05:11:44;;;;;;;;;;;15.00;81.80;;;;;;5094270;28;19969;-69
2021/09/21 05:14:14;;;;;;;;;;;15.00;82.40;;;;;;5094361;28;19912;-69
2021/09/21 05:16:41;;;;;;;;;;;15.10;83.00;;;;;;5094391;28;19912;-69
2021/09/21 05:19:11;;;;;;;;;;;15.20;83.00;;;;;;5094088;28;19912;-69
2021/09/21 05:21:38;;;;;;;;;;;15.10;81.70;;;;;;5093334;28;19908;-69
2021/09/21 05:24:06;;;;;;;;;;;15.00;82.50;;;;;;5093879;28;19912;-69
2021/09/21 05:26:32;;;;;;;;;;;15.10;82.70;;;;;;5094453;28;19913;-69
2021/09/21 05:28:59;;;;;;;;;;;15.00;82.00;;;;;;5094114;28;20262;-70
2021/09/21 05:31:26;;;;;;;;;;;15.00;82.80;;;;;;5093966;28;20001;-69
2021/09/21 05:33:53;;;;;;;;;;;15.00;83.00;;;;;;5093694;28;19908;-69
2021/09/21 05:36:19;;;;;;;;;;;15.00;84.80;;;;;;5094005;28;19908;-69
2021/09/21 05:38:46;;;;;;;;;;;14.90;82.50;;;;;;5093840;28;20418;-70
2021/09/21 05:41:13;;;;;;;;;;;14.90;83.00;;;;;;5094111;28;19908;-70
2021/09/21 05:43:39;;;;;;;;;;;14.80;82.00;;;;;;5093870;28;20067;-70
2021/09/21 05:46:06;;;;;;;;;;;14.70;84.30;;;;;;5093754;28;20348;-69
2021/09/21 05:48:33;;;;;;;;;;;14.70;83.10;;;;;;5093766;28;20255;-69
2021/09/21 05:51:00;;;;;;;;;;;14.70;81.90;;;;;;5093747;28;19920;-69
2021/09/21 05:53:26;;;;;;;;;;;14.80;81.20;;;;;;5093116;28;19953;-69
2021/09/21 05:55:53;;;;;;;;;;;14.80;80.70;;;;;;5093516;28;19908;-69
2021/09/21 05:58:20;;;;;;;;;;;14.70;80.30;;;;;;5093562;28;19983;-69
2021/09/21 06:00:46;;;;;;;;;;;14.70;81.20;;;;;;5093808;28;20373;-68
2021/09/21 06:03:13;;;;;;;;;;;14.80;80.70;;;;;;5093454;28;19934;-67
2021/09/21 06:05:40;;;;;;;;;;;14.80;80.00;;;;;;5093339;28;19916;-67
2021/09/21 06:08:06;;;;;;;;;;;14.80;79.10;;;;;;5092991;28;19994;-69
2021/09/21 06:10:35;;;;;;;;;;;14.80;77.80;;;;;;5093309;28;20392;-68
2021/09/21 06:13:02;;;;;;;;;;;14.80;78.00;;;;;;5093218;28;20283;-67
2021/09/21 06:15:28;;;;;;;;;;;14.90;78.00;;;;;;5093527;28;19916;-67
2021/09/21 06:17:55;;;;;;;;;;;14.80;78.40;;;;;;5092990;28;20009;-68
2021/09/21 06:20:22;;;;;;;;;;;14.80;78.40;;;;;;5093063;28;19959;-67
2021/09/21 06:22:49;;;;;;;;;;;14.90;77.80;;;;;;5093044;28;19908;-69
2021/09/21 06:25:16;;;;;;;;;;;14.90;76.90;;;;;;5092910;28;19939;-68
2021/09/21 06:27:43;;;;;;;;;;;14.80;76.00;;;;;;5093159;28;20287;-69
2021/09/21 06:30:12;;;;;;;;;;;14.70;76.90;;;;;;5093081;28;19912;-69
2021/09/21 06:32:39;;;;;;;;;;;14.60;79.10;;;;;;5092642;28;20286;-69
2021/09/21 06:35:06;;;;;;;;;;;14.50;78.00;;;;;;5092628;28;19908;-69
2021/09/21 06:37:33;;;;;;;;;;;14.40;78.90;;;;;;5092905;28;20311;-69
2021/09/21 06:40:00;;;;;;;;;;;14.40;79.50;;;;;;5092636;28;19908;-69
2021/09/21 06:42:28;;;;;;;;;;;14.40;80.40;;;;;;5092742;28;19988;-68
2021/09/21 06:44:55;;;;;;;;;;;14.40;81.50;;;;;;5092684;28;20386;-69
2021/09/21 06:47:22;;;;;;;;;;;14.30;83.10;;;;;;5092830;28;19915;-68
2021/09/21 06:49:48;;;;;;;;;;;14.30;84.40;;;;;;5092374;28;20006;-68
2021/09/21 06:52:15;;;;;;;;;;;14.30;84.20;;;;;;5089980;28;19919;-68
2021/09/21 06:54:42;;;;;;;;;;;14.30;84.80;;;;;;5090298;28;19915;-68
2021/09/21 06:57:09;;;;;;;;;;;14.30;83.90;;;;;;5090724;28;20400;-69
2021/09/21 06:59:35;;;;;;;;;;;14.20;84.80;;;;;;5090510;28;19961;-69
2021/09/21 07:02:02;;;;;;;;;;;14.30;84.90;;;;;;5090294;28;19909;-69
2021/09/21 07:04:29;;;;;;;;;;;14.30;85.90;;;;;;5089973;28;20373;-68
2021/09/21 07:06:55;;;;;;;;;;;14.20;87.70;;;;;;5090437;28;19939;-68
2021/09/21 07:09:22;;;;;;;;;;;14.20;88.50;;;;;;5090563;28;19912;-69
2021/09/21 07:11:48;;;;;;;;;;;14.20;88.80;;;;;;5089965;28;19912;-67
2021/09/21 07:14:17;;;;;;;;;;;14.20;88.30;;;;;;5090461;28;20695;-69
2021/09/21 07:16:44;;;;;;;;;;;14.20;88.20;;;;;;5090255;28;19988;-68
2021/09/21 07:19:11;;;;;;;;;;;14.20;88.70;;;;;;5089984;28;19908;-68
2021/09/21 07:21:41;;;;;;;;;;;14.10;89.00;;;;;;5090603;28;19947;-68
2021/09/21 07:24:08;;;;;;;;;;;14.10;89.90;;;;;;5090469;28;19923;-70
2021/09/21 07:29:37;;;;;;;;;;;14.00;91.20;;;;;;5090207;28;19919;-68
2021/09/21 07:32:04;;;;;;;;;;;14.00;91.10;;;;;;5089956;28;20283;-68
2021/09/21 07:34:31;;;;;;;;;;;14.00;91.10;;;;;;5090443;28;19912;-68
2021/09/21 07:36:58;;;;;;;;;;;14.00;91.40;;;;;;5090535;28;19965;-66
2021/09/21 07:39:25;;;;;;;;;;;13.90;91.60;;;;;;5090509;28;19984;-68
2021/09/21 07:41:57;;;;;;;;;;;13.90;91.90;;;;;;5090027;28;19930;-68
2021/09/21 07:44:25;;;;;;;;;;;13.90;92.10;;;;;;5092858;28;19924;-65
2021/09/21 07:46:53;;;;;;;;;;;13.90;92.70;;;;;;5092813;28;19916;-66
2021/09/21 07:49:23;;;;;;;;;;;13.90;92.50;;;;;;5092385;28;20539;-69
2021/09/21 07:51:51;;;;;;;;;;;13.80;92.70;;;;;;5093760;28;20009;-65
2021/09/21 07:54:18;;;;;;;;;;;13.80;93.20;;;;;;5093571;28;19908;-66
2021/09/21 07:56:47;;;;;;;;;;;13.80;93.50;;;;;;5092521;28;19916;-67
2021/09/21 07:59:19;;;;;;;;;;;13.80;94.00;;;;;;5093874;28;19908;-67
2021/09/21 08:01:48;;;;;;;;;;;13.70;94.00;;;;;;5093742;28;20528;-66
2021/09/21 08:04:16;;;;;;;;;;;13.70;94.40;;;;;;5091413;28;20006;-68
2021/09/21 08:06:44;;;;;;;;;;;13.70;94.70;;;;;;5092274;28;19941;-67
2021/09/21 08:09:11;;;;;;;;;;;13.70;95.10;;;;;;5093550;28;19918;-68
2021/09/21 08:11:40;;;;;;;;;;;13.70;95.10;;;;;;5092772;28;19918;-70
2021/09/21 08:14:09;;;;;;;;;;;13.70;95.30;;;;;;5093434;28;20019;-69
2021/09/21 08:16:39;;;;;;;;;;;13.70;96.00;;;;;;5093658;28;19923;-68
2021/09/21 08:19:09;;;;;;;;;;;13.70;96.40;;;;;;5093337;28;20387;-68
2021/09/21 08:21:37;;;;;;;;;;;13.70;96.50;;;;;;5075236;28;19962;-68
2021/09/21 08:24:05;;;;;;;;;;;13.60;96.60;;;;;;5092161;28;19908;-67
2021/09/21 08:26:35;;;;;;;;;;;13.70;96.70;;;;;;5092204;28;19916;-68
2021/09/21 08:29:07;;;;;;;;;;;13.60;95.90;;;;;;5093696;28;20402;-69
2021/09/21 08:31:34;;;;;;;;;;;13.60;96.10;;;;;;5077823;28;19913;-69
2021/09/21 08:34:04;;;;;;;;;;;13.60;96.10;;;;;;5073279;28;19912;-68
2021/09/21 08:36:35;;;;;;;;;;;13.60;96.10;;;;;;5105020;28;19919;-68
2021/09/21 08:39:03;;;;;;;;;;;13.60;96.30;;;;;;5071461;28;19931;-67
2021/09/21 08:41:31;;;;;;;;;;;13.60;96.50;;;;;;5072726;28;19908;-66
2021/09/21 08:43:58;;;;;;;;;;;13.60;96.90;;;;;;5072225;28;20020;-66
2021/09/21 08:46:25;;;;;;;;;;;13.60;97.10;;;;;;5071965;28;19956;-68
2021/09/21 08:48:52;;;;;;;;;;;13.60;97.00;;;;;;5072393;28;19908;-69
2021/09/21 08:51:18;;;;;;;;;;;13.60;95.70;;;;;;5072588;28;19920;-67
2021/09/21 08:53:45;;;;;;;;;;;13.60;95.10;;;;;;5071817;28;20501;-66
2021/09/21 08:56:12;;;;;;;;;;;13.60;94.20;;;;;;5072144;28;19909;-67
2021/09/21 08:58:39;;;;;;;;;;;13.60;93.30;;;;;;5072502;28;19920;-68
2021/09/21 09:01:10;;;;;;;;;;;13.60;93.30;;;;;;5071993;28;19913;-66
2021/09/21 09:03:36;;;;;;;;;;;13.60;92.80;;;;;;5072252;28;19916;-67
2021/09/21 09:06:07;;;;;;;;;;;13.60;93.60;;;;;;5073470;28;20403;-66
2021/09/21 09:08:35;;;;;;;;;;;13.60;94.20;;;;;;5074264;28;19915;-67
2021/09/21 09:11:18;;;;;;;;;;;13.60;94.50;;;;;;5074305;28;20283;-67
2021/09/21 09:13:46;;;;;;;;;;;13.50;94.70;;;;;;5074225;28;19908;-66
2021/09/21 09:16:14;;;;;;;;;;;13.50;94.80;;;;;;5074406;28;19909;-67
2021/09/21 09:18:41;;;;;;;;;;;13.50;94.70;;;;;;5074055;28;19915;-68
2021/09/21 09:21:09;;;;;;;;;;;13.50;94.60;;;;;;5074396;28;19913;-65
2021/09/21 09:23:56;;;;;;;;;;;13.50;94.80;;;;;;5073738;28;19915;-65
2021/09/21 09:26:23;;;;;;;;;;;13.50;94.90;;;;;;5073955;28;19916;-65
2021/09/21 09:28:51;;;;;;;;;;;13.50;95.20;;;;;;5074096;28;20331;-65
2021/09/21 09:31:25;;;;;;;;;;;13.50;95.20;;;;;;5074234;28;19908;-66
2021/09/21 09:34:03;;;;;;;;;;;13.50;95.50;;;;;;5073500;28;20236;-66
2021/09/21 09:36:29;;;;;;;;;;;13.50;95.80;;;;;;5073547;28;19915;-65
2021/09/21 09:39:00;;;;;;;;;;;13.50;96.20;;;;;;5074150;28;19959;-66
2021/09/21 09:41:37;;;;;;;;;;;13.50;96.40;;;;;;5073763;28;20324;-68
2021/09/21 09:44:23;;;;;;;;;;;13.50;96.20;;;;;;5073930;28;19909;-66
2021/09/21 09:46:52;;;;;;;;;;;13.60;96.30;;;;;;5073654;28;19978;-67
2021/09/21 09:49:23;;;;;;;;;;;13.60;96.50;;;;;;5073352;28;19995;-69
2021/09/21 09:51:50;;;;;;;;;;;13.60;96.70;;;;;;5073272;28;19921;-67
2021/09/21 09:54:17;;;;;;;;;;;13.60;97.30;;;;;;5073306;28;19908;-68
2021/09/21 09:56:45;;;;;;;;;;;13.60;97.40;;;;;;5073205;28;20129;-67
2021/09/21 09:59:16;;;;;;;;;;;13.60;97.10;;;;;;5073275;28;19918;-66
2021/09/21 10:01:43;;;;;;;;;;;13.60;97.20;;;;;;5073222;28;19908;-68
2021/09/21 10:04:11;;;;;;;;;;;13.60;97.10;;;;;;5072962;28;20240;-68
2021/09/21 10:06:39;;;;;;;;;;;13.50;97.60;;;;;;5072871;28;20282;-67
2021/09/21 10:09:06;;;;;;;;;;;13.50;97.90;;;;;;5073075;28;19955;-67
2021/09/21 10:11:33;;;;;;;;;;;13.50;98.60;;;;;;5072438;28;19913;-67
2021/09/21 10:14:01;;;;;;;;;;;13.50;98.00;;;;;;5105875;28;19918;-69
2021/09/21 10:16:28;;;;;;;;;;;13.50;97.60;;;;;;5073513;28;20003;-69
2021/09/21 10:18:55;;;;;;;;;;;13.50;97.60;;;;;;5073534;28;19912;-68
2021/09/21 10:21:33;;;;;;;;;;;13.50;98.30;;;;;;5073614;28;19915;-68
2021/09/21 10:24:03;;;;;;;;;;;13.50;98.80;;;;;;5072847;28;19962;-68
2021/09/21 10:26:31;;;;;;;;;;;13.50;99.60;;;;;;5072057;28;19917;-68
2021/09/21 10:28:58;;;;;;;;;;;13.50;99.90;;;;;;5073236;28;19931;-68
2021/09/21 10:31:25;;;;;;;;;;;13.50;99.90;;;;;;5073116;28;19920;-69
2021/09/21 10:33:52;;;;;;;;;;;13.40;99.90;;;;;;5072373;28;19950;-67
2021/09/21 10:36:20;;;;;;;;;;;13.40;99.90;;;;;;5072771;28;19974;-68
2021/09/21 10:38:54;;;;;;;;;;;13.40;99.90;;;;;;5072573;28;19909;-68
2021/09/21 10:41:20;;;;;;;;;;;13.40;99.90;;;;;;5072526;28;19908;-68
2021/09/21 10:43:57;;;;;;;;;;;13.40;99.80;;;;;;5072716;28;20021;-69
2021/09/21 10:46:23;;;;;;;;;;;13.40;99.90;;;;;;5073765;28;19923;-68
2021/09/21 10:48:50;;;;;;;;;;;13.30;99.90;;;;;;5073443;28;20401;-69
2021/09/21 10:51:17;;;;;;;;;;;13.30;99.90;;;;;;5071966;28;19959;-68
2021/09/21 10:53:43;;;;;;;;;;;13.30;99.90;;;;;;5072203;28;19915;-67
2021/09/21 10:56:11;;;;;;;;;;;13.20;99.90;;;;;;5072083;28;20282;-69
2021/09/21 10:58:39;;;;;;;;;;;13.20;99.90;;;;;;5072736;28;19915;-69
2021/09/21 11:01:07;;;;;;;;;;;13.20;99.90;;;;;;5072920;28;19909;-68
2021/09/21 11:03:39;;;;;;;;;;;13.20;99.90;;;;;;5071937;28;20121;-68
2021/09/21 11:06:05;;;;;;;;;;;13.10;99.90;;;;;;5072366;28;19981;-68
2021/09/21 11:08:33;;;;;;;;;;;13.10;99.90;;;;;;5072286;28;19912;-68
2021/09/21 11:11:03;;;;;;;;;;;13.10;99.90;;;;;;5072024;28;19912;-68
2021/09/21 11:13:34;;;;;;;;;;;13.10;99.90;;;;;;5071913;28;19908;-67
2021/09/21 11:16:02;;;;;;;;;;;13.10;99.90;;;;;;5072885;28;20250;-66
2021/09/21 11:18:29;;;;;;;;;;;13.10;99.90;;;;;;5072080;28;19930;-68
2021/09/21 11:20:57;;;;;;;;;;;13.10;99.90;;;;;;5075356;28;19915;-66
2021/09/21 11:23:25;;;;;;;;;;;13.10;99.90;;;;;;5075303;28;19908;-67
2021/09/21 11:25:52;;;;;;;;;;;13.00;99.90;;;;;;5080787;28;19916;-67
2021/09/21 11:28:19;;;;;;;;;;;13.00;99.90;;;;;;5075836;28;19913;-68
2021/09/21 11:30:46;;;;;;;;;;;13.00;99.90;;;;;;5074617;28;19908;-68
2021/09/21 11:33:13;;;;;;;;;;;13.00;99.90;;;;;;5072401;28;19912;-69
2021/09/21 11:35:44;;;;;;;;;;;13.00;99.90;;;;;;5072331;28;19908;-69
2021/09/21 11:38:11;;;;;;;;;;;13.00;99.90;;;;;;5072315;28;20671;-68
2021/09/21 11:40:40;;;;;;;;;;;13.00;99.90;;;;;;5072679;28;19989;-69
2021/09/21 11:43:06;;;;;;;;;;;13.00;99.90;;;;;;5072232;28;20004;-69
2021/09/21 11:45:33;;;;;;;;;;;13.00;99.90;;;;;;5071688;28;20324;-67
2021/09/21 11:48:00;;;;;;;;;;;12.90;99.90;;;;;;5071692;28;19917;-68
2021/09/21 11:50:31;;;;;;;;;;;12.90;99.90;;;;;;5071871;28;19924;-68
2021/09/21 11:52:59;;;;;;;;;;;12.80;99.90;;;;;;5071545;28;19913;-67
2021/09/21 11:55:27;;;;;;;;;;;12.80;99.90;;;;;;5071196;28;19908;-68
2021/09/21 11:57:54;;;;;;;;;;;12.80;99.90;;;;;;5071393;28;19961;-67
2021/09/21 12:00:30;;;;;;;;;;;12.80;99.90;;;;;;5071559;28;20260;-69
2021/09/21 12:03:01;;;;;;;;;;;12.80;99.90;;;;;;5071517;28;20215;-68
2021/09/21 12:05:29;;;;;;;;;;;12.80;99.90;;;;;;5071699;28;20203;-67
2021/09/21 12:07:55;;;;;;;;;;;12.80;99.90;;;;;;5071156;28;19995;-68
2021/09/21 12:10:24;;;;;;;;;;;12.80;99.90;;;;;;5071761;28;19909;-68
2021/09/21 12:13:12;;;;;;;;;;;12.80;99.90;;;;;;5071508;28;20284;-66
2021/09/21 12:15:40;;;;;;;;;;;12.80;99.90;;;;;;5071737;28;19915;-66
2021/09/21 12:18:10;;;;;;;;;;;12.70;99.90;;;;;;5071688;28;19908;-65
2021/09/21 12:20:37;;;;;;;;;;;12.50;99.90;;;;;;5071561;28;19908;-67
2021/09/21 12:23:05;;;;;;;;;;;12.50;99.90;;;;;;5071248;28;19909;-68
2021/09/21 12:25:34;;;;;;;;;;;12.40;99.90;;;;;;5070906;28;20287;-67
2021/09/21 12:28:02;;;;;;;;;;;12.30;99.90;;;;;;5071306;28;19931;-68
2021/09/21 12:30:31;;;;;;;;;;;12.30;99.90;;;;;;5074098;28;19909;-68
2021/09/21 12:33:00;;;;;;;;;;;12.30;99.90;;;;;;5074893;28;19952;-67
2021/09/21 12:35:35;;;;;;;;;;;12.20;99.90;;;;;;5074603;28;20003;-67
2021/09/21 12:38:06;;;;;;;;;;;12.10;99.90;;;;;;5074749;28;19948;-67
2021/09/21 12:40:34;;;;;;;;;;;11.90;99.90;;;;;;5074991;28;20003;-67
2021/09/21 12:43:05;;;;;;;;;;;11.70;99.90;;;;;;5074737;28;20347;-66
2021/09/21 12:45:33;;;;;;;;;;;11.60;99.90;;;;;;5073232;28;19922;-67
2021/09/21 12:48:01;;;;;;;;;;;11.40;99.90;;;;;;5074404;28;19916;-67
2021/09/21 12:50:28;;;;;;;;;;;11.30;99.90;;;;;;5074698;28;19920;-67
2021/09/21 12:52:56;;;;;;;;;;;11.30;99.90;;;;;;5074899;28;19947;-66
2021/09/21 12:55:30;;;;;;;;;;;11.30;99.90;;;;;;5075821;28;19908;-66
2021/09/21 12:57:57;;;;;;;;;;;11.30;99.90;;;;;;5075021;28;20277;-67
2021/09/21 13:00:24;;;;;;;;;;;11.20;99.90;;;;;;5076069;28;20378;-67
2021/09/21 13:02:51;;;;;;;;;;;11.00;99.90;;;;;;5074442;28;19909;-68
2021/09/21 13:05:19;;;;;;;;;;;10.90;99.90;;;;;;5074395;28;20017;-67
2021/09/21 13:07:46;;;;;;;;;;;10.80;99.90;;;;;;5075012;28;19920;-67
2021/09/21 13:10:12;;;;;;;;;;;10.70;99.90;;;;;;5074549;28;20231;-68
2021/09/21 13:12:40;;;;;;;;;;;10.80;99.90;;;;;;5074493;28;19912;-67
2021/09/21 13:15:07;;;;;;;;;;;10.90;99.90;;;;;;5074622;28;19916;-67
2021/09/21 13:17:33;;;;;;;;;;;11.00;99.90;;;;;;5073869;28;19931;-68
2021/09/21 13:20:00;;;;;;;;;;;11.00;99.90;;;;;;5073551;28;19909;-68
2021/09/21 13:22:27;;;;;;;;;;;11.00;99.90;;;;;;5074465;28;19912;-67
2021/09/21 13:24:54;;;;;;;;;;;11.00;99.90;;;;;;5073355;28;19913;-68
2021/09/21 13:27:21;;;;;;;;;;;11.00;99.90;;;;;;5074290;28;19967;-66
2021/09/21 13:29:47;;;;;;;;;;;11.10;99.90;;;;;;5073932;28;19932;-66
2021/09/21 13:32:15;;;;;;;;;;;11.10;99.90;;;;;;5073837;28;19908;-67
2021/09/21 13:34:42;;;;;;;;;;;11.20;99.90;;;;;;5074115;28;19956;-66
2021/09/21 13:37:09;;;;;;;;;;;11.20;99.90;;;;;;5074090;28;19988;-68
2021/09/21 13:39:35;;;;;;;;;;;11.20;99.90;;;;;;5073619;28;19908;-66
2021/09/21 13:42:02;;;;;;;;;;;11.10;99.90;;;;;;5073023;28;19912;-66
2021/09/21 13:44:30;;;;;;;;;;;10.90;99.90;;;;;;5073744;28;19912;-66
2021/09/21 13:46:57;;;;;;;;;;;10.80;99.90;;;;;;5073712;28;19913;-69
2021/09/21 13:49:24;;;;;;;;;;;10.70;99.90;;;;;;5073666;28;19931;-67
2021/09/21 13:51:50;;;;;;;;;;;10.70;99.90;;;;;;5073802;28;19920;-67
2021/09/21 13:54:17;;;;;;;;;;;10.50;99.90;;;;;;5073184;28;19954;-68
2021/09/21 13:56:44;;;;;;;;;;;10.50;99.90;;;;;;5073604;28;19979;-68
2021/09/21 13:59:10;;;;;;;;;;;10.40;99.90;;;;;;5073549;28;20302;-68
2021/09/21 14:01:37;;;;;;;;;;;10.30;99.90;;;;;;5073186;28;20036;-68
2021/09/21 14:04:04;;;;;;;;;;;10.10;99.90;;;;;;5073272;28;19908;-69
2021/09/21 14:06:30;;;;;;;;;;;10.10;99.90;;;;;;5073424;28;19917;-67
2021/09/21 14:08:57;;;;;;;;;;;10.20;99.90;;;;;;5073379;28;20389;-68
2021/09/21 14:11:24;;;;;;;;;;;10.20;99.90;;;;;;5105879;28;19908;-66
2021/09/21 14:13:50;;;;;;;;;;;10.20;99.90;;;;;;5072937;28;19916;-69
2021/09/21 14:16:17;;;;;;;;;;;10.30;99.90;;;;;;5073150;28;19908;-69
2021/09/21 14:18:44;;;;;;;;;;;10.40;99.90;;;;;;5073070;28;19908;-69
2021/09/21 14:21:10;;;;;;;;;;;10.40;99.90;;;;;;5073028;28;19908;-68
2021/09/21 14:23:37;;;;;;;;;;;10.40;99.90;;;;;;5072747;28;19928;-68
2021/09/21 14:26:04;;;;;;;;;;;10.40;99.90;;;;;;5072909;28;19917;-68
2021/09/21 14:28:32;;;;;;;;;;;10.40;99.90;;;;;;5073228;28;19932;-68
2021/09/21 14:31:01;;;;;;;;;;;10.40;99.90;;;;;;5073134;28;19955;-68
2021/09/21 14:33:27;;;;;;;;;;;10.30;99.90;;;;;;5073192;28;19931;-68
2021/09/21 14:35:54;;;;;;;;;;;10.30;99.90;;;;;;5072806;28;19908;-68